NEW weather

Lakefront Airport
New Orleans, Louisiana, United States

Public forecast

Using degrees Fahrenheit for public forecast. Weather courtesy of forecast.io.

METAR (pilot weather report)

Retrieved 2019/04/26 14:53 UTC (53 minutes ago):

KNEW 261453Z 32006KT 10SM CLR 22/17 A3004 RMK AO2 SLP165 T02170167 51025

TAF (pilot weather forecast)

Retrieved 2019/04/26 12:28 UTC (3 hours ago):

TAF KNEW 261126Z 2612/2712 35016KT P6SM SKC FM270100 01008KT P6SM SKC FM270600 04006KT P6SM SKC